Time;durP1;ratioP1;P1;durP2;ratioP2;P2;SDS_P1;SDS_P2;PMS_P1;PMS_P2;Temp;Humidity;BMP_temperature;BMP_pressure;BME280_temperature;BME280_humidity;BME280_pressure;Samples;Min_cycle;Max_cycle;Signal;HPM_P1;HPM_P2
2022/06/26 00:00:17;;;;;;;10.80;4.75;;;18.50;99.90;;;;;;5018615;28;20026;-47
2022/06/26 00:02:42;;;;;;;13.40;3.85;;;18.60;99.90;;;;;;5018292;28;20048;-46
2022/06/26 00:05:10;;;;;;;14.07;3.47;;;18.60;99.90;;;;;;5018730;28;20021;-45
2022/06/26 00:07:35;;;;;;;5.15;3.60;;;18.60;99.90;;;;;;5018442;28;20116;-46
2022/06/26 00:10:01;;;;;;;7.70;3.22;;;18.70;99.90;;;;;;5035956;28;20044;-46
2022/06/26 00:12:27;;;;;;;6.55;2.80;;;18.70;99.90;;;;;;5035656;28;20108;-45
2022/06/26 00:14:52;;;;;;;9.50;3.40;;;18.80;99.90;;;;;;5035949;28;20031;-47
2022/06/26 00:17:18;;;;;;;9.80;4.18;;;18.80;99.90;;;;;;5018122;28;20028;-45
2022/06/26 00:19:43;;;;;;;13.65;4.75;;;18.80;99.90;;;;;;5035821;28;20426;-45
2022/06/26 00:22:09;;;;;;;11.52;3.58;;;18.80;99.90;;;;;;5017892;28;20064;-45
2022/06/26 00:24:36;;;;;;;9.13;3.95;;;18.80;99.90;;;;;;5017805;28;20029;-46
2022/06/26 00:27:03;;;;;;;6.03;3.05;;;18.80;99.90;;;;;;5035449;28;20396;-46
2022/06/26 00:29:31;;;;;;;13.63;3.90;;;18.80;99.90;;;;;;5035411;28;20056;-46
2022/06/26 00:31:57;;;;;;;12.82;3.88;;;18.90;99.90;;;;;;5017444;28;20523;-46
2022/06/26 00:34:23;;;;;;;14.55;3.80;;;18.90;99.90;;;;;;5035459;28;20026;-45
2022/06/26 00:36:49;;;;;;;18.75;3.95;;;18.90;99.90;;;;;;5017509;28;20025;-45
2022/06/26 00:39:15;;;;;;;9.70;3.60;;;18.90;99.90;;;;;;5017462;28;20084;-46
2022/06/26 00:41:41;;;;;;;7.07;3.65;;;18.90;99.90;;;;;;5017158;28;20028;-45
2022/06/26 00:44:14;;;;;;;7.57;3.33;;;19.10;99.90;;;;;;5017397;28;20017;-45
2022/06/26 00:46:40;;;;;;;7.25;3.20;;;19.20;99.90;;;;;;5017797;28;20017;-47
2022/06/26 00:49:05;;;;;;;5.55;2.83;;;19.20;99.90;;;;;;5035131;28;20392;-46
2022/06/26 00:51:31;;;;;;;7.20;3.10;;;19.30;99.90;;;;;;5034992;28;20021;-47
2022/06/26 00:53:57;;;;;;;9.50;3.38;;;19.50;99.90;;;;;;5017182;28;20026;-46
2022/06/26 00:56:22;;;;;;;11.13;3.42;;;19.50;99.90;;;;;;5034927;28;20018;-45
2022/06/26 00:58:48;;;;;;;6.22;3.53;;;19.50;99.90;;;;;;5017104;28;20117;-46
2022/06/26 01:01:14;;;;;;;6.15;3.45;;;19.50;99.90;;;;;;5034815;28;20036;-45
2022/06/26 01:03:39;;;;;;;7.75;2.95;;;19.40;99.90;;;;;;5017155;28;20022;-45
2022/06/26 01:06:07;;;;;;;6.53;3.40;;;19.40;99.90;;;;;;5017837;28;20033;-46
2022/06/26 01:08:34;;;;;;;4.25;3.08;;;19.30;99.90;;;;;;5016987;28;20507;-48
2022/06/26 01:11:01;;;;;;;10.50;3.28;;;19.30;99.90;;;;;;5034907;28;20057;-45
2022/06/26 01:13:27;;;;;;;6.18;3.03;;;19.10;99.90;;;;;;5016784;28;20033;-46
2022/06/26 01:15:53;;;;;;;6.82;3.10;;;19.20;99.90;;;;;;5017078;28;20018;-45
2022/06/26 01:18:19;;;;;;;8.68;3.03;;;19.30;99.90;;;;;;5016707;28;20030;-46
2022/06/26 01:20:45;;;;;;;9.70;3.80;;;19.30;99.90;;;;;;5016669;28;20061;-46
2022/06/26 01:23:19;;;;;;;3.45;2.90;;;19.40;99.90;;;;;;5035083;28;20033;-48
2022/06/26 01:25:49;;;;;;;6.25;3.47;;;19.40;99.90;;;;;;5016543;28;20029;-46
2022/06/26 01:28:16;;;;;;;7.25;3.60;;;19.40;99.90;;;;;;5017469;28;20037;-46
2022/06/26 01:30:42;;;;;;;4.93;3.17;;;19.40;99.90;;;;;;5034361;28;20025;-46
2022/06/26 01:33:10;;;;;;;6.55;3.28;;;19.40;99.90;;;;;;5034236;28;20091;-46
2022/06/26 01:35:35;;;;;;;4.85;3.08;;;19.30;99.90;;;;;;5016442;28;20022;-46
2022/06/26 01:38:21;;;;;;;3.75;3.10;;;19.30;99.90;;;;;;5016460;28;20071;-45
2022/06/26 01:40:47;;;;;;;4.18;2.92;;;19.40;99.90;;;;;;5034098;28;20104;-48
2022/06/26 01:43:16;;;;;;;9.27;2.72;;;19.40;99.90;;;;;;5034002;28;20101;-49
2022/06/26 01:45:47;;;;;;;3.28;2.63;;;19.40;99.90;;;;;;5016266;28;20053;-46
2022/06/26 01:48:13;;;;;;;5.45;3.22;;;19.60;99.90;;;;;;5034271;28;20033;-46
2022/06/26 01:50:39;;;;;;;5.05;2.78;;;19.60;99.90;;;;;;5033739;28;20030;-46
2022/06/26 01:53:05;;;;;;;9.27;3.25;;;19.60;99.90;;;;;;5033077;28;20029;-46
2022/06/26 01:55:31;;;;;;;5.57;2.53;;;19.60;99.90;;;;;;5033822;28;20049;-46
2022/06/26 01:57:57;;;;;;;4.47;2.33;;;19.60;99.90;;;;;;5016035;28;20057;-46
2022/06/26 02:00:23;;;;;;;5.85;2.63;;;19.60;99.90;;;;;;5016268;28;20056;-46
2022/06/26 02:02:48;;;;;;;3.30;2.40;;;19.70;99.90;;;;;;5016825;28;20060;-46
2022/06/26 02:05:14;;;;;;;7.82;2.88;;;19.80;99.90;;;;;;5033668;28;20436;-45
2022/06/26 02:07:40;;;;;;;6.82;2.80;;;19.80;99.90;;;;;;5015949;28;20079;-45
2022/06/26 02:15:34;;;;;;;6.95;3.00;;;19.70;99.90;;;;;;5034173;28;20040;-46
2022/06/26 02:17:59;;;;;;;6.00;2.70;;;19.70;99.90;;;;;;5033717;28;20026;-46
2022/06/26 02:20:25;;;;;;;5.03;3.10;;;19.80;99.90;;;;;;5015944;28;20086;-46
2022/06/26 02:22:51;;;;;;;6.68;2.80;;;19.80;99.90;;;;;;5015707;28;20034;-46
2022/06/26 02:25:17;;;;;;;7.35;3.15;;;19.80;99.90;;;;;;5033629;28;20022;-47
2022/06/26 02:27:42;;;;;;;8.98;3.55;;;19.70;99.90;;;;;;5033248;28;20061;-45
2022/06/26 02:30:08;;;;;;;13.00;3.20;;;19.70;99.90;;;;;;5015501;28;20108;-46
2022/06/26 02:32:35;;;;;;;8.82;3.03;;;19.70;99.90;;;;;;5015465;28;20033;-49
2022/06/26 02:35:01;;;;;;;13.75;3.42;;;19.70;99.90;;;;;;5033167;28;20075;-45
2022/06/26 02:37:26;;;;;;;9.60;3.03;;;19.60;99.90;;;;;;5016258;28;20063;-46
2022/06/26 02:39:52;;;;;;;9.68;3.40;;;19.50;99.90;;;;;;5016063;28;20112;-47
2022/06/26 02:42:17;;;;;;;8.35;2.30;;;19.50;99.90;;;;;;5016338;28;20064;-47
2022/06/26 02:44:43;;;;;;;11.82;2.83;;;19.50;99.90;;;;;;5033336;28;20033;-45
2022/06/26 02:47:09;;;;;;;4.95;2.13;;;19.40;99.90;;;;;;5033054;28;20026;-46
2022/06/26 02:49:34;;;;;;;5.30;2.13;;;19.40;99.90;;;;;;5033368;28;20030;-46
2022/06/26 02:52:00;;;;;;;7.68;2.75;;;19.30;99.90;;;;;;5015102;28;20179;-45
2022/06/26 02:54:25;;;;;;;4.38;2.67;;;19.30;99.90;;;;;;5016070;28;20384;-46
2022/06/26 02:56:51;;;;;;;4.15;2.30;;;19.30;99.90;;;;;;5015271;28;20587;-46
2022/06/26 02:59:16;;;;;;;5.90;2.00;;;19.50;99.90;;;;;;5032882;28;20021;-46
2022/06/26 03:01:42;;;;;;;3.15;2.25;;;19.60;99.90;;;;;;5015285;28;20064;-46
2022/06/26 03:04:08;;;;;;;4.57;2.20;;;19.60;99.90;;;;;;5015005;28;20029;-46
2022/06/26 03:06:33;;;;;;;6.20;2.10;;;19.70;99.90;;;;;;5015120;28;20026;-46
2022/06/26 03:08:59;;;;;;;13.32;3.30;;;19.60;99.90;;;;;;5032972;28;20025;-46
2022/06/26 03:11:24;;;;;;;11.57;3.17;;;19.70;99.90;;;;;;5032778;28;20025;-46
2022/06/26 03:13:50;;;;;;;6.35;2.80;;;19.70;99.90;;;;;;5015050;28;20033;-45
2022/06/26 03:16:16;;;;;;;5.63;2.13;;;19.60;99.90;;;;;;5015334;28;20112;-46
2022/06/26 03:18:41;;;;;;;6.13;2.72;;;19.70;99.90;;;;;;5032707;28;20037;-47
2022/06/26 03:21:07;;;;;;;6.18;2.20;;;19.80;99.90;;;;;;5032679;28;20064;-46
2022/06/26 03:26:16;;;;;;;13.48;3.20;;;19.80;99.90;;;;;;5032982;28;20045;-45
2022/06/26 03:28:42;;;;;;;3.47;1.90;;;19.80;99.90;;;;;;5014915;28;20033;-46
2022/06/26 03:31:08;;;;;;;4.50;2.40;;;19.80;99.90;;;;;;5032490;28;20029;-46
2022/06/26 03:33:33;;;;;;;4.93;2.47;;;20.00;99.90;;;;;;5032773;28;20060;-46
2022/06/26 03:35:59;;;;;;;7.43;2.70;;;20.00;99.90;;;;;;5015576;28;20063;-46
2022/06/26 03:38:25;;;;;;;7.13;2.65;;;19.90;99.90;;;;;;5032569;28;20443;-46
2022/06/26 03:40:50;;;;;;;8.20;2.80;;;19.90;99.90;;;;;;5015224;28;20018;-45
2022/06/26 03:43:16;;;;;;;8.75;2.50;;;19.80;99.90;;;;;;5032380;28;20025;-46
2022/06/26 03:45:42;;;;;;;6.05;2.25;;;19.80;99.90;;;;;;5014647;28;20112;-46
2022/06/26 03:48:08;;;;;;;6.35;2.22;;;19.70;99.90;;;;;;5014654;28;20025;-45
2022/06/26 03:50:33;;;;;;;7.07;2.33;;;19.60;99.90;;;;;;5032302;28;20041;-49
2022/06/26 03:52:59;;;;;;;7.38;2.40;;;19.60;99.90;;;;;;5014826;28;20025;-46
2022/06/26 03:55:25;;;;;;;4.45;2.33;;;19.60;99.90;;;;;;5014598;28;20074;-45
2022/06/26 03:57:50;;;;;;;6.88;2.38;;;19.60;99.90;;;;;;5032345;28;20029;-46
2022/06/26 04:00:17;;;;;;;5.60;2.65;;;19.50;99.90;;;;;;5015052;28;20025;-46
2022/06/26 04:02:43;;;;;;;3.33;2.53;;;19.50;99.90;;;;;;5032493;28;20028;-46
2022/06/26 04:05:09;;;;;;;5.20;2.30;;;19.60;99.90;;;;;;5032310;28;20030;-46
2022/06/26 04:07:35;;;;;;;9.93;2.70;;;19.60;99.90;;;;;;5032164;28;20075;-46
2022/06/26 04:10:00;;;;;;;6.57;2.67;;;19.70;99.90;;;;;;5032152;28;20029;-46
2022/06/26 04:12:26;;;;;;;6.40;2.28;;;19.90;99.90;;;;;;5014381;28;20052;-46
2022/06/26 04:14:52;;;;;;;4.20;2.22;;;20.10;99.90;;;;;;5015451;28;20448;-46
2022/06/26 04:17:18;;;;;;;7.13;2.95;;;20.40;99.90;;;;;;5035656;28;20393;-46
2022/06/26 04:19:43;;;;;;;6.57;2.83;;;20.70;99.90;;;;;;5035573;28;20060;-46
2022/06/26 04:22:09;;;;;;;7.00;3.00;;;20.90;99.90;;;;;;5035539;28;20461;-46
2022/06/26 04:24:35;;;;;;;4.00;2.58;;;21.20;99.90;;;;;;5017860;28;20057;-46
2022/06/26 04:27:01;;;;;;;6.50;2.80;;;21.40;99.90;;;;;;5017830;28;20041;-46
2022/06/26 04:29:26;;;;;;;5.10;2.85;;;21.60;99.90;;;;;;5018246;28;20026;-46
2022/06/26 04:31:52;;;;;;;5.97;2.83;;;21.60;99.90;;;;;;5035508;28;20392;-46
2022/06/26 04:34:18;;;;;;;10.88;3.97;;;21.70;99.90;;;;;;5035879;28;20100;-46
2022/06/26 04:36:43;;;;;;;4.85;3.35;;;21.50;99.90;;;;;;5018052;28;20017;-46
2022/06/26 04:39:09;;;;;;;3.80;2.95;;;21.20;99.90;;;;;;5018029;28;20021;-46
2022/06/26 04:41:35;;;;;;;4.38;2.40;;;21.20;99.90;;;;;;5035632;28;20044;-46
2022/06/26 04:44:05;;;;;;;5.45;2.40;;;21.20;99.90;;;;;;5018319;28;20028;-46
2022/06/26 04:46:32;;;;;;;8.13;3.28;;;21.30;99.90;;;;;;5036063;28;20104;-47
2022/06/26 04:48:58;;;;;;;11.95;2.88;;;21.40;99.90;;;;;;5018244;28;20033;-46
2022/06/26 04:51:24;;;;;;;6.10;3.03;;;21.50;99.90;;;;;;5035492;28;20492;-47
2022/06/26 04:53:49;;;;;;;2.78;2.38;;;21.70;99.90;;;;;;5035436;28;20057;-46
2022/06/26 04:56:15;;;;;;;5.32;2.70;;;22.10;99.90;;;;;;5017636;28;20431;-46
2022/06/26 04:58:41;;;;;;;5.03;2.28;;;22.40;99.90;;;;;;5017758;28;20026;-47
2022/06/26 05:01:07;;;;;;;4.03;2.60;;;22.70;99.90;;;;;;5017556;28;20406;-46
2022/06/26 05:03:33;;;;;;;6.13;2.35;;;23.00;99.90;;;;;;5035275;28;20032;-47
2022/06/26 05:05:59;;;;;;;3.90;2.20;;;23.00;99.90;;;;;;5017604;28;20396;-46
2022/06/26 05:08:25;;;;;;;5.10;2.15;;;23.00;99.90;;;;;;5017429;28;20026;-46
2022/06/26 05:10:50;;;;;;;3.45;2.25;;;23.00;99.90;;;;;;5035085;28;20049;-46
2022/06/26 05:13:16;;;;;;;5.18;2.65;;;22.80;99.90;;;;;;5017305;28;20145;-46
2022/06/26 05:15:42;;;;;;;8.85;2.55;;;22.80;99.90;;;;;;5035392;28;20021;-47
2022/06/26 05:18:08;;;;;;;3.28;2.20;;;22.70;99.90;;;;;;5034897;28;20591;-45
2022/06/26 05:20:34;;;;;;;3.60;2.33;;;22.70;99.90;;;;;;5035216;28;20120;-46
2022/06/26 05:22:59;;;;;;;3.17;2.30;;;22.60;99.90;;;;;;5035129;28;20104;-46
2022/06/26 05:25:25;;;;;;;5.57;2.20;;;22.50;99.90;;;;;;5035142;28;20045;-46
2022/06/26 05:27:51;;;;;;;4.65;2.55;;;22.60;99.90;;;;;;5034365;28;20160;-47
2022/06/26 05:30:16;;;;;;;7.60;2.25;;;22.70;99.90;;;;;;5017006;28;20484;-46
2022/06/26 05:32:42;;;;;;;2.78;2.20;;;22.80;99.90;;;;;;5034648;28;20024;-46
2022/06/26 05:35:08;;;;;;;4.30;2.50;;;22.60;99.90;;;;;;5016985;28;20064;-46
2022/06/26 05:37:33;;;;;;;2.90;2.28;;;22.90;99.90;;;;;;5034664;28;20104;-47
2022/06/26 05:39:59;;;;;;;5.35;1.95;;;23.30;99.90;;;;;;5016756;28;20032;-46
2022/06/26 05:42:25;;;;;;;6.68;2.25;;;23.90;99.90;;;;;;5016814;28;20022;-47
2022/06/26 05:44:50;;;;;;;4.13;2.30;;;24.20;99.90;;;;;;5017317;28;20026;-46
2022/06/26 05:47:16;;;;;;;8.65;2.08;;;24.40;99.90;;;;;;5017653;28;20102;-45
2022/06/26 05:49:41;;;;;;;3.63;2.00;;;24.50;99.90;;;;;;5017878;28;20092;-46
2022/06/26 05:52:07;;;;;;;4.28;1.98;;;24.60;99.90;;;;;;5017107;28;20380;-49
2022/06/26 05:54:33;;;;;;;2.55;1.48;;;25.20;99.90;;;;;;5016643;28;20025;-50
2022/06/26 05:56:58;;;;;;;3.97;1.38;;;26.10;99.90;;;;;;5016590;28;20025;-47
2022/06/26 05:59:24;;;;;;;3.33;1.52;;;27.00;99.90;;;;;;5034506;28;20108;-46
2022/06/26 06:01:50;;;;;;;2.85;1.30;;;27.90;99.90;;;;;;5034070;28;20022;-46
2022/06/26 06:04:15;;;;;;;1.95;1.20;;;28.60;99.90;;;;;;5034151;28;20021;-46
2022/06/26 06:06:41;;;;;;;1.15;1.00;;;29.00;99.90;;;;;;5016760;28;20044;-44
2022/06/26 06:09:07;;;;;;;2.05;1.20;;;29.40;99.90;;;;;;5034375;28;20018;-46
2022/06/26 06:11:33;;;;;;;3.70;0.77;;;29.80;99.90;;;;;;5033966;28;20021;-47
2022/06/26 06:13:58;;;;;;;1.45;1.00;;;29.80;99.90;;;;;;5033916;28;20105;-46
2022/06/26 06:16:24;;;;;;;1.35;0.75;;;29.80;99.90;;;;;;5034065;28;20079;-46
2022/06/26 06:18:50;;;;;;;1.48;0.80;;;29.60;99.90;;;;;;5016495;28;20490;-44
2022/06/26 06:21:15;;;;;;;1.70;0.82;;;29.80;99.90;;;;;;5033801;28;20072;-46
2022/06/26 06:23:44;;;;;;;1.30;0.93;;;30.60;99.90;;;;;;5016089;28;20403;-44
2022/06/26 06:26:10;;;;;;;2.47;0.88;;;30.70;99.90;;;;;;5033791;28;20064;-44
2022/06/26 06:28:36;;;;;;;2.15;0.80;;;30.80;99.90;;;;;;5033773;28;20029;-46
2022/06/26 06:31:02;;;;;;;2.22;0.70;;;31.10;99.90;;;;;;5033891;28;20081;-44
2022/06/26 06:33:27;;;;;;;3.00;1.02;;;31.60;99.90;;;;;;5016711;28;20029;-46
2022/06/26 06:35:55;;;;;;;2.75;0.80;;;31.90;99.90;;;;;;5016001;28;20108;-44
2022/06/26 06:38:21;;;;;;;2.05;0.98;;;31.90;99.90;;;;;;5015937;28;20032;-46
2022/06/26 06:40:47;;;;;;;0.95;0.73;;;31.80;99.90;;;;;;5015841;28;20026;-43
2022/06/26 06:43:13;;;;;;;0.70;0.70;;;31.30;99.90;;;;;;5033607;28;20104;-45
2022/06/26 06:45:39;;;;;;;0.80;0.80;;;30.90;99.90;;;;;;5033587;28;20057;-43
2022/06/26 06:48:06;;;;;;;3.22;1.80;;;30.80;99.90;;;;;;5015850;28;20448;-44
2022/06/26 06:50:31;;;;;;;6.13;4.20;;;31.40;99.90;;;;;;5033469;28;20021;-44
2022/06/26 06:52:57;;;;;;;1.65;1.08;;;32.10;99.90;;;;;;5033381;28;20029;-48
2022/06/26 06:55:23;;;;;;;1.33;0.63;;;32.90;99.90;;;;;;5033429;28;20025;-46
2022/06/26 06:57:49;;;;;;;1.92;0.90;;;33.40;99.90;;;;;;5033704;28;20032;-44
2022/06/26 07:00:15;;;;;;;1.20;0.63;;;33.40;99.90;;;;;;5015592;28;20055;-44
2022/06/26 07:02:41;;;;;;;1.67;1.00;;;32.80;99.20;;;;;;5033533;28;20112;-44
2022/06/26 07:05:08;;;;;;;1.10;0.50;;;32.30;99.90;;;;;;5033308;28;20025;-43
2022/06/26 07:07:35;;;;;;;1.05;0.60;;;31.60;99.40;;;;;;5015577;28;20029;-47
2022/06/26 07:10:00;;;;;;;1.00;0.75;;;31.40;99.70;;;;;;5015613;28;20040;-51
2022/06/26 07:12:26;;;;;;;2.50;0.80;;;31.20;99.80;;;;;;5015498;28;20025;-47
2022/06/26 07:14:52;;;;;;;1.50;0.50;;;31.00;99.90;;;;;;5033225;28;20025;-46
2022/06/26 07:17:21;;;;;;;5.30;3.47;;;30.70;99.90;;;;;;5015721;28;20025;-44
2022/06/26 07:19:47;;;;;;;0.80;0.80;;;30.80;99.90;;;;;;5015705;28;20108;-45
2022/06/26 07:22:12;;;;;;;0.70;0.70;;;31.20;99.90;;;;;;5015441;28;20136;-44
2022/06/26 07:24:39;;;;;;;0.85;0.50;;;31.50;99.90;;;;;;5033630;28;20040;-44
2022/06/26 07:27:05;;;;;;;1.13;0.63;;;31.30;99.90;;;;;;5015245;28;20404;-45
2022/06/26 07:29:31;;;;;;;0.50;0.50;;;31.00;99.90;;;;;;5015661;28;20468;-44
2022/06/26 07:31:57;;;;;;;2.13;0.63;;;31.30;99.90;;;;;;5032851;28;20076;-45
2022/06/26 07:34:23;;;;;;;0.60;0.60;;;32.40;99.40;;;;;;5015386;28;20051;-45
2022/06/26 07:36:50;;;;;;;2.60;0.93;;;33.00;97.90;;;;;;5033053;28;20104;-45
2022/06/26 07:39:19;;;;;;;1.48;0.73;;;33.80;96.80;;;;;;5015243;28;20506;-46
2022/06/26 07:41:46;;;;;;;0.93;0.80;;;34.70;95.70;;;;;;5032894;28;20496;-45
2022/06/26 07:44:12;;;;;;;0.73;0.57;;;35.40;94.20;;;;;;5015936;28;20025;-45
2022/06/26 07:46:38;;;;;;;4.90;1.00;;;35.80;93.40;;;;;;5033202;28;20022;-48
2022/06/26 07:49:06;;;;;;;2.13;0.63;;;36.70;92.40;;;;;;5033183;28;20057;-47
2022/06/26 07:51:32;;;;;;;1.58;0.82;;;37.60;90.50;;;;;;5018553;28;20021;-47
2022/06/26 07:53:58;;;;;;;1.88;0.80;;;38.00;86.20;;;;;;5036868;28;20033;-48
2022/06/26 07:56:25;;;;;;;0.85;0.75;;;38.40;83.20;;;;;;5018773;28;20076;-47
2022/06/26 07:58:52;;;;;;;2.30;0.75;;;39.10;81.50;;;;;;5018916;28;20022;-46
2022/06/26 08:01:18;;;;;;;0.75;0.70;;;39.50;80.00;;;;;;5036356;28;20031;-45
2022/06/26 08:03:44;;;;;;;0.80;0.70;;;39.60;76.60;;;;;;5018837;28;20021;-48
2022/06/26 08:06:10;;;;;;;0.80;0.80;;;39.60;76.60;;;;;;5018690;28;20026;-47
2022/06/26 08:08:37;;;;;;;1.35;0.80;;;39.40;76.10;;;;;;5019738;28;20021;-46
2022/06/26 08:11:03;;;;;;;4.88;1.20;;;40.10;73.90;;;;;;5019118;28;20025;-47
2022/06/26 08:13:29;;;;;;;2.38;1.00;;;40.40;71.90;;;;;;5018488;28;20476;-47
2022/06/26 08:15:55;;;;;;;1.08;1.00;;;40.70;71.60;;;;;;5036325;28;20060;-47
2022/06/26 08:18:20;;;;;;;2.65;1.08;;;40.70;70.90;;;;;;5019073;28;20075;-46
2022/06/26 08:20:46;;;;;;;2.08;0.90;;;41.40;69.60;;;;;;5018767;28;20106;-46
2022/06/26 08:23:12;;;;;;;1.63;0.80;;;41.90;68.20;;;;;;5036045;28;20036;-46
2022/06/26 08:25:38;;;;;;;3.20;1.00;;;42.30;66.10;;;;;;5018353;28;20037;-46
2022/06/26 08:28:04;;;;;;;0.93;0.93;;;42.30;64.90;;;;;;5018758;28;20029;-48
2022/06/26 08:30:29;;;;;;;2.08;1.00;;;42.70;65.00;;;;;;5018178;28;20034;-48
2022/06/26 08:32:58;;;;;;;1.20;1.10;;;42.60;64.30;;;;;;5018255;28;20025;-46
2022/06/26 08:35:25;;;;;;;3.45;1.00;;;42.50;64.10;;;;;;5018233;28;20025;-49
2022/06/26 08:37:51;;;;;;;3.17;0.90;;;42.20;63.50;;;;;;5035902;28;20392;-50
2022/06/26 08:40:17;;;;;;;0.82;0.82;;;42.50;64.60;;;;;;5035851;28;20100;-46
2022/06/26 08:42:47;;;;;;;4.80;1.10;;;42.70;63.00;;;;;;5018101;28;20095;-47
2022/06/26 08:45:15;;;;;;;1.67;1.00;;;42.90;62.20;;;;;;5018130;28;20113;-47
2022/06/26 08:47:41;;;;;;;1.17;1.13;;;43.00;62.20;;;;;;5035657;28;20084;-51
2022/06/26 08:50:08;;;;;;;1.20;1.10;;;43.60;60.80;;;;;;5035521;28;20057;-48
2022/06/26 08:52:35;;;;;;;4.30;1.02;;;44.10;60.30;;;;;;5018201;28;20033;-46
2022/06/26 08:55:03;;;;;;;1.42;1.08;;;44.20;59.20;;;;;;5036046;28;20023;-48
2022/06/26 08:57:29;;;;;;;1.08;0.98;;;44.60;58.70;;;;;;5017653;28;20048;-48
2022/06/26 08:59:55;;;;;;;2.47;0.98;;;44.30;58.80;;;;;;5035486;28;20030;-46
2022/06/26 09:02:21;;;;;;;2.25;1.20;;;42.60;57.70;;;;;;5035175;28;20026;-47
2022/06/26 09:04:46;;;;;;;1.20;1.10;;;43.10;58.70;;;;;;5017679;28;20180;-48
2022/06/26 09:07:12;;;;;;;1.42;1.10;;;43.70;59.40;;;;;;5017579;28;20025;-46
2022/06/26 09:09:40;;;;;;;1.27;1.17;;;44.10;58.30;;;;;;5017514;28;20032;-48
2022/06/26 09:12:07;;;;;;;1.00;1.00;;;44.30;56.80;;;;;;5035362;28;20056;-49
2022/06/26 09:14:32;;;;;;;1.15;1.05;;;44.60;56.50;;;;;;5018199;28;20026;-48
2022/06/26 09:16:59;;;;;;;1.00;0.90;;;45.00;56.50;;;;;;5017461;28;20088;-46
2022/06/26 09:19:29;;;;;;;1.73;1.20;;;45.20;57.00;;;;;;5018542;28;20029;-49
2022/06/26 09:22:15;;;;;;;1.23;1.13;;;45.40;54.80;;;;;;5017530;28;20022;-48
2022/06/26 09:24:54;;;;;;;1.00;1.00;;;45.80;54.30;;;;;;5034920;28;20053;-48
2022/06/26 09:27:21;;;;;;;2.33;1.15;;;45.20;55.70;;;;;;5017669;28;20033;-46
2022/06/26 09:29:52;;;;;;;1.50;1.40;;;45.50;54.20;;;;;;5035316;28;20121;-48
2022/06/26 09:35:39;;;;;;;1.67;0.80;;;44.70;55.40;;;;;;5035134;28;20044;-47
2022/06/26 09:38:05;;;;;;;1.55;1.05;;;44.90;54.10;;;;;;5034761;28;20104;-49
2022/06/26 09:40:31;;;;;;;1.20;1.10;;;44.80;53.10;;;;;;5017195;28;20051;-48
2022/06/26 09:42:57;;;;;;;0.98;0.90;;;44.20;53.10;;;;;;5016988;28;20492;-47
2022/06/26 09:45:22;;;;;;;1.38;1.00;;;44.40;53.70;;;;;;5016985;28;20032;-47
2022/06/26 09:47:49;;;;;;;1.02;1.02;;;44.20;53.60;;;;;;5034515;28;20076;-46
2022/06/26 09:50:15;;;;;;;1.13;1.00;;;44.20;53.00;;;;;;5016690;28;20099;-45
2022/06/26 09:52:42;;;;;;;2.35;1.10;;;44.30;52.80;;;;;;5016912;28;20427;-45
2022/06/26 09:55:09;;;;;;;1.20;1.00;;;43.50;53.80;;;;;;5011234;28;20017;-45
2022/06/26 09:57:36;;;;;;;2.45;0.98;;;42.90;53.60;;;;;;5018131;28;20029;-48
2022/06/26 10:00:03;;;;;;;0.80;0.80;;;43.00;55.50;;;;;;5014861;28;20033;-47
2022/06/26 10:08:03;;;;;;;1.60;1.00;;;43.10;53.00;;;;;;5034601;28;20036;-50
2022/06/26 10:10:29;;;;;;;;;;;43.10;53.80;;;;;;5017945;28;20110;-47
2022/06/26 10:12:58;;;;;;;1.15;0.90;;;43.30;53.30;;;;;;5033500;28;19920;-48
2022/06/26 10:15:34;;;;;;;0.80;0.80;;;43.90;53.40;;;;;;5015453;28;20538;-47
2022/06/26 10:18:00;;;;;;;2.60;1.00;;;43.90;52.90;;;;;;5006898;28;20057;-51
2022/06/26 10:20:31;;;;;;;1.95;0.90;;;43.90;52.70;;;;;;5033976;28;20370;-54
2022/06/26 10:22:56;;;;;;;2.67;0.90;;;43.70;52.90;;;;;;5034474;28;20063;-50
2022/06/26 10:25:24;;;;;;;1.00;0.85;;;43.00;52.60;;;;;;5016129;28;20057;-49
2022/06/26 10:27:50;;;;;;;1.13;0.80;;;41.60;54.40;;;;;;5034564;28;20029;-45
2022/06/26 10:30:19;;;;;;;2.47;0.90;;;40.10;54.40;;;;;;5016794;28;20031;-48
2022/06/26 10:32:45;;;;;;;2.65;0.90;;;39.50;57.20;;;;;;5016057;28;20029;-47
2022/06/26 10:35:12;;;;;;;0.60;0.60;;;39.50;56.90;;;;;;5033666;28;20494;-49
2022/06/26 10:37:43;;;;;;;1.15;0.63;;;38.80;56.60;;;;;;5033914;28;20060;-46
2022/06/26 10:40:13;;;;;;;1.00;0.75;;;38.10;56.10;;;;;;5016064;28;20076;-46
2022/06/26 10:42:53;;;;;;;4.60;0.80;;;36.70;56.70;;;;;;5033697;28;20029;-49
2022/06/26 10:45:19;;;;;;;;;;;35.50;61.30;;;;;;5016278;28;20025;-50
2022/06/26 10:48:14;;;;;;;1.17;0.70;;;35.20;62.00;;;;;;5015702;28;19905;-50
2022/06/26 10:50:41;;;;;;;0.77;0.60;;;35.10;61.50;;;;;;4980962;28;20034;-50
2022/06/26 10:53:25;;;;;;;0.50;0.50;;;35.20;62.10;;;;;;5016483;28;20045;-50
2022/06/26 10:55:56;;;;;;;0.77;0.70;;;35.20;62.80;;;;;;5033463;28;20017;-48
2022/06/26 10:58:44;;;;;;;0.50;0.50;;;35.10;61.10;;;;;;5016244;28;20559;-49
2022/06/26 11:01:11;;;;;;;1.35;0.70;;;35.10;62.80;;;;;;5033353;28;20064;-49
2022/06/26 11:03:38;;;;;;;0.52;0.47;;;34.90;61.30;;;;;;5016460;28;20083;-48
2022/06/26 11:06:05;;;;;;;1.50;0.50;;;34.60;63.80;;;;;;5033359;28;20034;-51
2022/06/26 11:08:33;;;;;;;0.73;0.73;;;34.20;62.80;;;;;;5015655;28;20489;-48
2022/06/26 11:11:08;;;;;;;0.60;0.60;;;33.80;65.40;;;;;;5033696;28;20033;-49
2022/06/26 11:13:35;;;;;;;0.70;0.70;;;33.00;65.60;;;;;;5015879;28;20033;-49
2022/06/26 11:16:02;;;;;;;2.28;0.70;;;32.20;68.60;;;;;;5033059;28;20033;-50
2022/06/26 11:18:35;;;;;;;0.73;0.60;;;31.30;68.50;;;;;;5016120;28;20022;-48
2022/06/26 11:21:02;;;;;;;0.70;0.70;;;31.40;70.80;;;;;;5015632;28;20029;-45
2022/06/26 11:23:30;;;;;;;1.45;0.40;;;31.50;69.80;;;;;;5033208;28;20057;-47
2022/06/26 11:26:01;;;;;;;0.52;0.52;;;31.70;67.90;;;;;;5013651;28;20026;-48
2022/06/26 11:28:32;;;;;;;1.15;0.50;;;31.80;69.20;;;;;;5034662;28;20083;-48
2022/06/26 11:30:58;;;;;;;0.50;0.50;;;32.00;69.50;;;;;;5037432;28;20108;-50
2022/06/26 11:33:26;;;;;;;0.98;0.75;;;32.20;69.00;;;;;;5026381;28;20516;-47
2022/06/26 11:35:53;;;;;;;0.55;0.55;;;32.20;68.80;;;;;;5032416;28;20144;-47
2022/06/26 11:38:20;;;;;;;0.60;0.60;;;32.30;69.10;;;;;;5019666;28;20067;-49
2022/06/26 11:40:47;;;;;;;3.20;0.77;;;32.50;69.70;;;;;;5019494;28;20079;-48
2022/06/26 11:43:13;;;;;;;0.55;0.50;;;32.70;69.60;;;;;;5014680;28;20079;-47
2022/06/26 11:45:43;;;;;;;0.50;0.50;;;32.70;69.50;;;;;;5037202;28;20040;-49
2022/06/26 11:48:13;;;;;;;1.17;0.60;;;32.60;68.70;;;;;;5020002;28;20048;-48
2022/06/26 11:50:39;;;;;;;1.35;0.55;;;32.80;67.80;;;;;;5018898;28;20395;-48
2022/06/26 11:53:06;;;;;;;1.05;0.60;;;33.00;66.90;;;;;;5019463;28;20472;-49
2022/06/26 11:55:34;;;;;;;0.90;0.77;;;33.10;67.60;;;;;;5019084;28;20028;-49
2022/06/26 11:58:03;;;;;;;0.50;0.50;;;32.90;68.20;;;;;;5018995;28;20022;-47
2022/06/26 12:00:30;;;;;;;0.60;0.57;;;32.80;68.20;;;;;;5018785;28;20080;-48
2022/06/26 12:02:55;;;;;;;0.63;0.63;;;32.50;69.50;;;;;;5036539;28;20036;-47
2022/06/26 12:05:27;;;;;;;0.85;0.63;;;32.60;68.50;;;;;;5036528;28;20022;-48
2022/06/26 12:07:54;;;;;;;0.95;0.60;;;32.40;70.00;;;;;;5018793;28;20400;-47
2022/06/26 12:10:35;;;;;;;2.05;0.50;;;32.50;69.70;;;;;;5018586;28;20029;-47
2022/06/26 12:13:01;;;;;;;1.08;0.77;;;32.30;69.50;;;;;;5019464;28;20120;-46
2022/06/26 12:15:30;;;;;;;0.75;0.63;;;32.00;68.40;;;;;;5018605;28;20033;-46
2022/06/26 12:17:59;;;;;;;1.20;0.60;;;31.60;67.30;;;;;;5018522;28;20017;-48
2022/06/26 12:20:26;;;;;;;2.25;0.60;;;31.40;69.50;;;;;;5018416;28;20522;-46
2022/06/26 12:22:56;;;;;;;3.35;0.82;;;31.30;72.00;;;;;;5036441;28;20030;-45
2022/06/26 12:25:24;;;;;;;;;;;31.20;72.40;;;;;;5019982;28;20025;-47
2022/06/26 12:27:50;;;;;;;0.50;0.50;;;31.20;71.40;;;;;;5036210;28;20283;-45
2022/06/26 12:30:17;;;;;;;0.60;0.60;;;31.10;72.30;;;;;;5018985;28;20022;-45
2022/06/26 12:32:42;;;;;;;1.02;0.60;;;30.90;72.00;;;;;;5018156;28;20041;-46
2022/06/26 12:35:08;;;;;;;3.00;0.60;;;30.90;71.70;;;;;;5035891;28;20021;-50
2022/06/26 12:37:34;;;;;;;1.48;0.60;;;30.80;72.80;;;;;;5035250;28;20030;-45
2022/06/26 12:39:59;;;;;;;0.85;0.70;;;30.80;73.10;;;;;;5017968;28;20492;-48
2022/06/26 12:42:25;;;;;;;1.77;0.80;;;30.80;73.10;;;;;;5036318;28;20071;-47
2022/06/26 12:44:50;;;;;;;1.30;0.60;;;30.90;72.50;;;;;;5018299;28;20029;-46
2022/06/26 12:47:16;;;;;;;1.48;0.50;;;31.00;73.60;;;;;;5017957;28;20392;-49
2022/06/26 12:49:42;;;;;;;0.60;0.50;;;31.10;72.30;;;;;;5035848;28;20048;-46
2022/06/26 12:52:07;;;;;;;1.35;0.60;;;31.20;71.80;;;;;;5018640;28;20025;-48
2022/06/26 12:54:33;;;;;;;2.08;0.60;;;31.40;72.90;;;;;;5018842;28;20022;-49
2022/06/26 12:56:58;;;;;;;0.60;0.60;;;31.50;72.50;;;;;;5018108;28;20116;-46
2022/06/26 12:59:24;;;;;;;1.80;0.60;;;31.40;72.60;;;;;;5035446;28;20021;-45
2022/06/26 13:01:50;;;;;;;0.60;0.60;;;31.50;72.30;;;;;;5035322;28;20021;-45